sensor_id;sensor_type;location;lat;lon;timestamp;P1;durP1;ratioP1;P2;durP2;ratioP2
48516;SDS011;34310;51.904;4.256;2024-03-07T00:00:16;12.73;;;11.43;;
48516;SDS011;34310;51.904;4.256;2024-03-07T00:02:46;13.40;;;11.77;;
48516;SDS011;34310;51.904;4.256;2024-03-07T00:05:24;14.45;;;12.55;;
48516;SDS011;34310;51.904;4.256;2024-03-07T00:07:52;13.98;;;11.80;;
48516;SDS011;34310;51.904;4.256;2024-03-07T00:10:19;14.93;;;12.75;;
48516;SDS011;34310;51.904;4.256;2024-03-07T00:12:46;14.10;;;11.85;;
48516;SDS011;34310;51.904;4.256;2024-03-07T00:15:13;13.82;;;12.10;;
48516;SDS011;34310;51.904;4.256;2024-03-07T00:17:40;15.35;;;12.63;;
48516;SDS011;34310;51.904;4.256;2024-03-07T00:20:08;14.25;;;12.05;;
48516;SDS011;34310;51.904;4.256;2024-03-07T00:22:35;16.42;;;13.45;;
48516;SDS011;34310;51.904;4.256;2024-03-07T00:25:03;15.80;;;12.90;;
48516;SDS011;34310;51.904;4.256;2024-03-07T00:27:30;13.10;;;11.77;;
48516;SDS011;34310;51.904;4.256;2024-03-07T00:29:58;14.88;;;13.18;;
48516;SDS011;34310;51.904;4.256;2024-03-07T00:32:25;13.50;;;11.85;;
48516;SDS011;34310;51.904;4.256;2024-03-07T00:34:52;15.43;;;12.93;;
48516;SDS011;34310;51.904;4.256;2024-03-07T00:37:18;13.48;;;11.68;;
48516;SDS011;34310;51.904;4.256;2024-03-07T00:39:45;13.45;;;11.88;;
48516;SDS011;34310;51.904;4.256;2024-03-07T00:42:11;13.85;;;12.32;;
48516;SDS011;34310;51.904;4.256;2024-03-07T00:44:38;14.50;;;12.70;;
48516;SDS011;34310;51.904;4.256;2024-03-07T00:47:04;15.95;;;13.23;;
48516;SDS011;34310;51.904;4.256;2024-03-07T00:49:31;13.93;;;12.23;;
48516;SDS011;34310;51.904;4.256;2024-03-07T00:51:58;14.65;;;12.90;;
48516;SDS011;34310;51.904;4.256;2024-03-07T00:54:25;13.38;;;11.98;;
48516;SDS011;34310;51.904;4.256;2024-03-07T00:56:51;14.35;;;12.52;;
48516;SDS011;34310;51.904;4.256;2024-03-07T00:59:18;14.68;;;12.77;;
48516;SDS011;34310;51.904;4.256;2024-03-07T01:01:45;14.90;;;13.15;;
48516;SDS011;34310;51.904;4.256;2024-03-07T01:04:12;14.68;;;12.43;;
48516;SDS011;34310;51.904;4.256;2024-03-07T01:06:38;15.02;;;12.60;;
48516;SDS011;34310;51.904;4.256;2024-03-07T01:09:05;15.82;;;13.27;;
48516;SDS011;34310;51.904;4.256;2024-03-07T01:11:31;15.68;;;12.63;;
48516;SDS011;34310;51.904;4.256;2024-03-07T01:13:58;16.00;;;13.75;;
48516;SDS011;34310;51.904;4.256;2024-03-07T01:16:24;16.20;;;12.75;;
48516;SDS011;34310;51.904;4.256;2024-03-07T01:18:51;15.40;;;13.07;;
48516;SDS011;34310;51.904;4.256;2024-03-07T01:21:18;15.55;;;13.85;;
48516;SDS011;34310;51.904;4.256;2024-03-07T01:23:44;15.40;;;13.07;;
48516;SDS011;34310;51.904;4.256;2024-03-07T01:26:11;15.32;;;13.10;;
48516;SDS011;34310;51.904;4.256;2024-03-07T01:28:38;16.77;;;14.20;;
48516;SDS011;34310;51.904;4.256;2024-03-07T01:31:04;16.13;;;13.25;;
48516;SDS011;34310;51.904;4.256;2024-03-07T01:33:31;17.15;;;13.32;;
48516;SDS011;34310;51.904;4.256;2024-03-07T01:35:57;16.00;;;14.07;;
48516;SDS011;34310;51.904;4.256;2024-03-07T01:38:24;15.07;;;13.25;;
48516;SDS011;34310;51.904;4.256;2024-03-07T01:40:51;17.42;;;14.18;;
48516;SDS011;34310;51.904;4.256;2024-03-07T01:43:17;16.38;;;13.18;;
48516;SDS011;34310;51.904;4.256;2024-03-07T01:45:44;16.85;;;13.93;;
48516;SDS011;34310;51.904;4.256;2024-03-07T01:48:12;15.73;;;13.43;;
48516;SDS011;34310;51.904;4.256;2024-03-07T01:50:50;15.80;;;13.68;;
48516;SDS011;34310;51.904;4.256;2024-03-07T01:53:17;17.00;;;14.45;;
48516;SDS011;34310;51.904;4.256;2024-03-07T01:55:44;16.95;;;14.57;;
48516;SDS011;34310;51.904;4.256;2024-03-07T01:58:11;16.70;;;14.30;;
48516;SDS011;34310;51.904;4.256;2024-03-07T02:00:44;17.08;;;14.70;;
48516;SDS011;34310;51.904;4.256;2024-03-07T02:03:11;18.35;;;16.10;;
48516;SDS011;34310;51.904;4.256;2024-03-07T02:05:38;18.35;;;16.00;;
48516;SDS011;34310;51.904;4.256;2024-03-07T02:08:05;17.75;;;15.57;;
48516;SDS011;34310;51.904;4.256;2024-03-07T02:10:32;17.10;;;14.60;;
48516;SDS011;34310;51.904;4.256;2024-03-07T02:12:59;18.67;;;15.98;;
48516;SDS011;34310;51.904;4.256;2024-03-07T02:15:25;17.33;;;14.68;;
48516;SDS011;34310;51.904;4.256;2024-03-07T02:17:52;17.38;;;14.82;;
48516;SDS011;34310;51.904;4.256;2024-03-07T02:20:19;15.95;;;14.25;;
48516;SDS011;34310;51.904;4.256;2024-03-07T02:22:46;16.25;;;14.20;;
48516;SDS011;34310;51.904;4.256;2024-03-07T02:25:12;17.73;;;14.82;;
48516;SDS011;34310;51.904;4.256;2024-03-07T02:27:39;16.35;;;14.25;;
48516;SDS011;34310;51.904;4.256;2024-03-07T02:30:06;17.00;;;13.93;;
48516;SDS011;34310;51.904;4.256;2024-03-07T02:32:32;17.15;;;14.30;;
48516;SDS011;34310;51.904;4.256;2024-03-07T02:34:59;17.13;;;14.68;;
48516;SDS011;34310;51.904;4.256;2024-03-07T02:37:26;16.73;;;14.73;;
48516;SDS011;34310;51.904;4.256;2024-03-07T02:39:52;16.58;;;14.32;;
48516;SDS011;34310;51.904;4.256;2024-03-07T02:42:19;16.27;;;14.43;;
48516;SDS011;34310;51.904;4.256;2024-03-07T02:44:45;17.33;;;14.88;;
48516;SDS011;34310;51.904;4.256;2024-03-07T02:47:12;17.30;;;15.23;;
48516;SDS011;34310;51.904;4.256;2024-03-07T02:49:39;19.45;;;15.18;;
48516;SDS011;34310;51.904;4.256;2024-03-07T02:52:05;16.38;;;14.65;;
48516;SDS011;34310;51.904;4.256;2024-03-07T02:54:32;16.52;;;14.55;;
48516;SDS011;34310;51.904;4.256;2024-03-07T02:56:59;17.60;;;15.10;;
48516;SDS011;34310;51.904;4.256;2024-03-07T02:59:25;17.10;;;14.98;;
48516;SDS011;34310;51.904;4.256;2024-03-07T03:01:52;17.77;;;15.48;;
48516;SDS011;34310;51.904;4.256;2024-03-07T03:04:19;18.70;;;15.85;;
48516;SDS011;34310;51.904;4.256;2024-03-07T03:06:45;18.58;;;15.68;;
48516;SDS011;34310;51.904;4.256;2024-03-07T03:09:12;18.13;;;14.60;;
48516;SDS011;34310;51.904;4.256;2024-03-07T03:11:38;16.90;;;15.02;;
48516;SDS011;34310;51.904;4.256;2024-03-07T03:14:05;16.63;;;14.57;;
48516;SDS011;34310;51.904;4.256;2024-03-07T03:16:32;17.27;;;15.40;;
48516;SDS011;34310;51.904;4.256;2024-03-07T03:19:13;17.60;;;15.35;;
48516;SDS011;34310;51.904;4.256;2024-03-07T03:21:39;17.88;;;15.30;;
48516;SDS011;34310;51.904;4.256;2024-03-07T03:24:06;18.85;;;16.05;;
48516;SDS011;34310;51.904;4.256;2024-03-07T03:26:33;18.38;;;15.80;;
48516;SDS011;34310;51.904;4.256;2024-03-07T03:29:00;18.30;;;15.70;;
48516;SDS011;34310;51.904;4.256;2024-03-07T03:31:26;17.30;;;15.13;;
48516;SDS011;34310;51.904;4.256;2024-03-07T03:33:53;18.40;;;15.80;;
48516;SDS011;34310;51.904;4.256;2024-03-07T03:36:19;18.17;;;16.20;;
48516;SDS011;34310;51.904;4.256;2024-03-07T03:38:46;16.85;;;15.02;;
48516;SDS011;34310;51.904;4.256;2024-03-07T03:41:16;17.65;;;15.02;;
48516;SDS011;34310;51.904;4.256;2024-03-07T03:43:43;17.70;;;15.88;;
48516;SDS011;34310;51.904;4.256;2024-03-07T03:46:10;17.17;;;15.23;;
48516;SDS011;34310;51.904;4.256;2024-03-07T03:48:40;17.15;;;14.63;;
48516;SDS011;34310;51.904;4.256;2024-03-07T03:51:07;17.95;;;15.73;;
48516;SDS011;34310;51.904;4.256;2024-03-07T03:53:35;18.70;;;15.70;;
48516;SDS011;34310;51.904;4.256;2024-03-07T03:56:02;18.65;;;15.88;;
48516;SDS011;34310;51.904;4.256;2024-03-07T03:58:30;17.95;;;15.35;;
48516;SDS011;34310;51.904;4.256;2024-03-07T04:00:57;17.83;;;15.52;;
48516;SDS011;34310;51.904;4.256;2024-03-07T04:03:24;17.63;;;15.13;;
48516;SDS011;34310;51.904;4.256;2024-03-07T04:05:50;17.10;;;15.23;;
48516;SDS011;34310;51.904;4.256;2024-03-07T04:08:17;19.27;;;16.40;;
48516;SDS011;34310;51.904;4.256;2024-03-07T04:10:44;16.88;;;14.98;;
48516;SDS011;34310;51.904;4.256;2024-03-07T04:13:10;18.40;;;16.20;;
48516;SDS011;34310;51.904;4.256;2024-03-07T04:15:37;19.42;;;16.35;;
48516;SDS011;34310;51.904;4.256;2024-03-07T04:18:05;18.40;;;16.02;;
48516;SDS011;34310;51.904;4.256;2024-03-07T04:20:32;17.58;;;15.55;;
48516;SDS011;34310;51.904;4.256;2024-03-07T04:22:59;20.83;;;17.48;;
48516;SDS011;34310;51.904;4.256;2024-03-07T04:25:26;21.15;;;18.13;;
48516;SDS011;34310;51.904;4.256;2024-03-07T04:27:52;18.80;;;16.63;;
48516;SDS011;34310;51.904;4.256;2024-03-07T04:30:19;19.65;;;16.85;;
48516;SDS011;34310;51.904;4.256;2024-03-07T04:32:45;18.55;;;16.25;;
48516;SDS011;34310;51.904;4.256;2024-03-07T04:35:12;17.33;;;15.50;;
48516;SDS011;34310;51.904;4.256;2024-03-07T04:37:43;19.40;;;16.23;;
48516;SDS011;34310;51.904;4.256;2024-03-07T04:40:09;16.73;;;14.73;;
48516;SDS011;34310;51.904;4.256;2024-03-07T04:42:36;17.13;;;14.65;;
48516;SDS011;34310;51.904;4.256;2024-03-07T04:45:03;17.83;;;15.35;;
48516;SDS011;34310;51.904;4.256;2024-03-07T04:47:30;16.90;;;15.05;;
48516;SDS011;34310;51.904;4.256;2024-03-07T04:49:57;17.65;;;15.57;;
48516;SDS011;34310;51.904;4.256;2024-03-07T04:52:23;16.55;;;14.38;;
48516;SDS011;34310;51.904;4.256;2024-03-07T04:54:50;17.10;;;14.65;;
48516;SDS011;34310;51.904;4.256;2024-03-07T04:57:16;16.92;;;14.95;;
48516;SDS011;34310;51.904;4.256;2024-03-07T04:59:43;16.77;;;14.68;;
48516;SDS011;34310;51.904;4.256;2024-03-07T05:02:09;17.92;;;15.63;;
48516;SDS011;34310;51.904;4.256;2024-03-07T05:04:36;18.02;;;15.98;;
48516;SDS011;34310;51.904;4.256;2024-03-07T05:07:03;18.75;;;15.32;;
48516;SDS011;34310;51.904;4.256;2024-03-07T05:09:30;17.00;;;14.55;;
48516;SDS011;34310;51.904;4.256;2024-03-07T05:11:56;18.35;;;15.90;;
48516;SDS011;34310;51.904;4.256;2024-03-07T05:14:23;18.35;;;15.93;;
48516;SDS011;34310;51.904;4.256;2024-03-07T05:16:49;18.08;;;16.15;;
48516;SDS011;34310;51.904;4.256;2024-03-07T05:19:16;18.77;;;16.30;;
48516;SDS011;34310;51.904;4.256;2024-03-07T05:21:42;19.30;;;16.27;;
48516;SDS011;34310;51.904;4.256;2024-03-07T05:24:09;18.63;;;16.10;;
48516;SDS011;34310;51.904;4.256;2024-03-07T05:26:36;18.75;;;15.95;;
48516;SDS011;34310;51.904;4.256;2024-03-07T05:29:03;20.60;;;17.00;;
48516;SDS011;34310;51.904;4.256;2024-03-07T05:31:31;19.85;;;16.83;;
48516;SDS011;34310;51.904;4.256;2024-03-07T05:33:58;19.67;;;16.52;;
48516;SDS011;34310;51.904;4.256;2024-03-07T05:36:24;19.88;;;17.38;;
48516;SDS011;34310;51.904;4.256;2024-03-07T05:38:51;18.42;;;16.42;;
48516;SDS011;34310;51.904;4.256;2024-03-07T05:41:17;18.40;;;16.00;;
48516;SDS011;34310;51.904;4.256;2024-03-07T05:43:44;19.52;;;16.95;;
48516;SDS011;34310;51.904;4.256;2024-03-07T05:46:10;18.92;;;16.85;;
48516;SDS011;34310;51.904;4.256;2024-03-07T05:48:37;18.38;;;16.40;;
48516;SDS011;34310;51.904;4.256;2024-03-07T05:51:04;20.33;;;17.48;;
48516;SDS011;34310;51.904;4.256;2024-03-07T05:53:30;19.52;;;16.60;;
48516;SDS011;34310;51.904;4.256;2024-03-07T05:55:57;18.73;;;16.73;;
48516;SDS011;34310;51.904;4.256;2024-03-07T05:58:23;19.42;;;16.63;;
48516;SDS011;34310;51.904;4.256;2024-03-07T06:00:50;19.30;;;16.25;;
48516;SDS011;34310;51.904;4.256;2024-03-07T06:03:17;19.83;;;16.77;;
48516;SDS011;34310;51.904;4.256;2024-03-07T06:05:44;18.98;;;16.52;;
48516;SDS011;34310;51.904;4.256;2024-03-07T06:08:12;21.23;;;17.30;;
48516;SDS011;34310;51.904;4.256;2024-03-07T06:10:38;19.92;;;17.25;;
48516;SDS011;34310;51.904;4.256;2024-03-07T06:13:05;22.15;;;17.83;;
48516;SDS011;34310;51.904;4.256;2024-03-07T06:15:39;21.08;;;17.42;;
48516;SDS011;34310;51.904;4.256;2024-03-07T06:18:06;20.88;;;17.45;;
48516;SDS011;34310;51.904;4.256;2024-03-07T06:20:33;20.48;;;16.85;;
48516;SDS011;34310;51.904;4.256;2024-03-07T06:23:00;20.83;;;17.85;;
48516;SDS011;34310;51.904;4.256;2024-03-07T06:25:27;19.73;;;17.52;;
48516;SDS011;34310;51.904;4.256;2024-03-07T06:27:54;20.90;;;18.00;;
48516;SDS011;34310;51.904;4.256;2024-03-07T06:30:20;20.77;;;17.25;;
48516;SDS011;34310;51.904;4.256;2024-03-07T06:32:47;19.83;;;17.30;;
48516;SDS011;34310;51.904;4.256;2024-03-07T06:35:14;20.85;;;17.35;;
48516;SDS011;34310;51.904;4.256;2024-03-07T06:37:40;20.20;;;17.27;;
48516;SDS011;34310;51.904;4.256;2024-03-07T06:40:07;20.13;;;17.05;;
48516;SDS011;34310;51.904;4.256;2024-03-07T06:42:34;20.70;;;18.00;;
48516;SDS011;34310;51.904;4.256;2024-03-07T06:45:01;23.20;;;19.15;;
48516;SDS011;34310;51.904;4.256;2024-03-07T06:47:31;24.42;;;20.10;;
48516;SDS011;34310;51.904;4.256;2024-03-07T06:49:57;24.05;;;19.08;;
48516;SDS011;34310;51.904;4.256;2024-03-07T06:52:24;20.98;;;17.85;;
48516;SDS011;34310;51.904;4.256;2024-03-07T06:54:50;22.95;;;18.67;;
48516;SDS011;34310;51.904;4.256;2024-03-07T06:57:17;21.45;;;17.55;;
48516;SDS011;34310;51.904;4.256;2024-03-07T06:59:44;20.88;;;16.92;;
48516;SDS011;34310;51.904;4.256;2024-03-07T07:02:10;18.92;;;16.75;;
48516;SDS011;34310;51.904;4.256;2024-03-07T07:04:37;19.05;;;16.83;;
48516;SDS011;34310;51.904;4.256;2024-03-07T07:07:03;18.50;;;15.93;;
48516;SDS011;34310;51.904;4.256;2024-03-07T07:09:30;18.35;;;15.93;;
48516;SDS011;34310;51.904;4.256;2024-03-07T07:11:57;19.55;;;16.55;;
48516;SDS011;34310;51.904;4.256;2024-03-07T07:14:23;19.40;;;16.40;;
48516;SDS011;34310;51.904;4.256;2024-03-07T07:16:50;19.77;;;16.95;;
48516;SDS011;34310;51.904;4.256;2024-03-07T07:19:16;20.17;;;16.35;;
48516;SDS011;34310;51.904;4.256;2024-03-07T07:21:43;19.90;;;16.35;;
48516;SDS011;34310;51.904;4.256;2024-03-07T07:24:10;18.67;;;15.98;;
48516;SDS011;34310;51.904;4.256;2024-03-07T07:26:36;19.65;;;16.83;;
48516;SDS011;34310;51.904;4.256;2024-03-07T07:29:03;18.23;;;15.85;;
48516;SDS011;34310;51.904;4.256;2024-03-07T07:31:29;20.77;;;17.10;;
48516;SDS011;34310;51.904;4.256;2024-03-07T07:33:56;21.02;;;17.88;;
48516;SDS011;34310;51.904;4.256;2024-03-07T07:36:23;25.25;;;21.50;;
48516;SDS011;34310;51.904;4.256;2024-03-07T07:38:52;26.35;;;21.15;;
48516;SDS011;34310;51.904;4.256;2024-03-07T07:41:19;26.77;;;21.65;;
48516;SDS011;34310;51.904;4.256;2024-03-07T07:43:46;25.50;;;20.75;;
48516;SDS011;34310;51.904;4.256;2024-03-07T07:46:12;26.13;;;21.73;;
48516;SDS011;34310;51.904;4.256;2024-03-07T07:48:39;23.65;;;21.08;;
48516;SDS011;34310;51.904;4.256;2024-03-07T07:51:05;25.65;;;21.40;;
48516;SDS011;34310;51.904;4.256;2024-03-07T07:53:33;25.25;;;21.33;;
48516;SDS011;34310;51.904;4.256;2024-03-07T07:56:01;25.83;;;21.50;;
48516;SDS011;34310;51.904;4.256;2024-03-07T07:58:27;25.50;;;21.50;;
48516;SDS011;34310;51.904;4.256;2024-03-07T08:00:54;26.77;;;22.33;;
48516;SDS011;34310;51.904;4.256;2024-03-07T08:03:21;27.00;;;21.65;;
48516;SDS011;34310;51.904;4.256;2024-03-07T08:05:47;25.60;;;20.70;;
48516;SDS011;34310;51.904;4.256;2024-03-07T08:08:14;26.00;;;21.50;;
48516;SDS011;34310;51.904;4.256;2024-03-07T08:10:41;27.48;;;22.23;;
48516;SDS011;34310;51.904;4.256;2024-03-07T08:13:11;24.88;;;21.00;;
48516;SDS011;34310;51.904;4.256;2024-03-07T08:15:37;25.65;;;21.77;;
48516;SDS011;34310;51.904;4.256;2024-03-07T08:18:04;25.08;;;21.60;;
48516;SDS011;34310;51.904;4.256;2024-03-07T08:20:31;26.75;;;22.08;;
48516;SDS011;34310;51.904;4.256;2024-03-07T08:22:58;27.50;;;22.88;;
48516;SDS011;34310;51.904;4.256;2024-03-07T08:25:25;24.92;;;21.23;;
48516;SDS011;34310;51.904;4.256;2024-03-07T08:27:54;24.33;;;21.42;;
48516;SDS011;34310;51.904;4.256;2024-03-07T08:30:22;26.92;;;22.95;;
48516;SDS011;34310;51.904;4.256;2024-03-07T08:32:53;25.27;;;21.58;;
48516;SDS011;34310;51.904;4.256;2024-03-07T08:35:21;26.38;;;22.02;;
48516;SDS011;34310;51.904;4.256;2024-03-07T08:37:49;27.50;;;21.80;;
48516;SDS011;34310;51.904;4.256;2024-03-07T08:40:16;24.65;;;21.20;;
48516;SDS011;34310;51.904;4.256;2024-03-07T08:42:43;23.70;;;21.00;;
48516;SDS011;34310;51.904;4.256;2024-03-07T08:45:10;24.98;;;21.17;;
48516;SDS011;34310;51.904;4.256;2024-03-07T08:47:37;26.52;;;22.00;;
48516;SDS011;34310;51.904;4.256;2024-03-07T08:50:04;25.17;;;21.02;;
48516;SDS011;34310;51.904;4.256;2024-03-07T08:52:31;26.95;;;22.02;;
48516;SDS011;34310;51.904;4.256;2024-03-07T08:54:58;25.02;;;20.88;;
48516;SDS011;34310;51.904;4.256;2024-03-07T08:57:24;26.27;;;21.88;;
48516;SDS011;34310;51.904;4.256;2024-03-07T08:59:51;25.95;;;20.67;;
48516;SDS011;34310;51.904;4.256;2024-03-07T09:02:18;27.17;;;22.30;;
48516;SDS011;34310;51.904;4.256;2024-03-07T09:04:44;25.45;;;21.45;;
48516;SDS011;34310;51.904;4.256;2024-03-07T09:07:11;25.33;;;20.65;;
48516;SDS011;34310;51.904;4.256;2024-03-07T09:09:39;24.10;;;20.80;;
48516;SDS011;34310;51.904;4.256;2024-03-07T09:12:07;24.20;;;20.20;;
48516;SDS011;34310;51.904;4.256;2024-03-07T09:14:34;23.60;;;19.73;;
48516;SDS011;34310;51.904;4.256;2024-03-07T09:17:01;26.17;;;21.23;;
48516;SDS011;34310;51.904;4.256;2024-03-07T09:19:28;23.30;;;19.80;;
48516;SDS011;34310;51.904;4.256;2024-03-07T09:21:54;22.50;;;19.30;;
48516;SDS011;34310;51.904;4.256;2024-03-07T09:24:21;22.10;;;19.63;;
48516;SDS011;34310;51.904;4.256;2024-03-07T09:26:48;22.35;;;18.92;;
48516;SDS011;34310;51.904;4.256;2024-03-07T09:29:16;21.98;;;18.40;;
48516;SDS011;34310;51.904;4.256;2024-03-07T09:31:43;21.75;;;18.90;;
48516;SDS011;34310;51.904;4.256;2024-03-07T09:34:10;21.58;;;18.10;;
48516;SDS011;34310;51.904;4.256;2024-03-07T09:36:36;20.48;;;17.63;;
48516;SDS011;34310;51.904;4.256;2024-03-07T09:39:03;20.98;;;18.27;;
48516;SDS011;34310;51.904;4.256;2024-03-07T09:41:30;20.40;;;17.88;;
48516;SDS011;34310;51.904;4.256;2024-03-07T09:43:56;20.50;;;18.10;;
48516;SDS011;34310;51.904;4.256;2024-03-07T09:46:25;20.48;;;17.15;;
48516;SDS011;34310;51.904;4.256;2024-03-07T09:48:52;20.05;;;17.15;;
48516;SDS011;34310;51.904;4.256;2024-03-07T09:51:20;20.73;;;17.52;;
48516;SDS011;34310;51.904;4.256;2024-03-07T09:53:48;20.65;;;17.90;;
48516;SDS011;34310;51.904;4.256;2024-03-07T09:56:17;19.15;;;16.77;;
48516;SDS011;34310;51.904;4.256;2024-03-07T09:58:49;19.08;;;16.75;;
48516;SDS011;34310;51.904;4.256;2024-03-07T10:01:19;19.20;;;16.17;;
48516;SDS011;34310;51.904;4.256;2024-03-07T10:03:47;18.45;;;16.50;;
48516;SDS011;34310;51.904;4.256;2024-03-07T10:06:16;18.70;;;16.55;;
48516;SDS011;34310;51.904;4.256;2024-03-07T10:08:43;17.85;;;15.90;;
48516;SDS011;34310;51.904;4.256;2024-03-07T10:11:10;18.15;;;15.95;;
48516;SDS011;34310;51.904;4.256;2024-03-07T10:13:37;17.63;;;15.68;;
48516;SDS011;34310;51.904;4.256;2024-03-07T10:16:03;18.50;;;15.68;;
48516;SDS011;34310;51.904;4.256;2024-03-07T10:18:31;17.98;;;15.60;;
48516;SDS011;34310;51.904;4.256;2024-03-07T10:20:58;18.40;;;16.30;;
48516;SDS011;34310;51.904;4.256;2024-03-07T10:23:25;17.92;;;15.27;;
48516;SDS011;34310;51.904;4.256;2024-03-07T10:25:52;17.17;;;15.20;;
48516;SDS011;34310;51.904;4.256;2024-03-07T10:28:19;16.08;;;14.27;;
48516;SDS011;34310;51.904;4.256;2024-03-07T10:30:45;17.33;;;14.73;;
48516;SDS011;34310;51.904;4.256;2024-03-07T10:33:12;16.88;;;14.15;;
48516;SDS011;34310;51.904;4.256;2024-03-07T10:35:39;15.60;;;13.82;;
48516;SDS011;34310;51.904;4.256;2024-03-07T10:38:06;15.63;;;14.00;;
48516;SDS011;34310;51.904;4.256;2024-03-07T10:40:34;16.65;;;14.75;;
48516;SDS011;34310;51.904;4.256;2024-03-07T10:43:00;15.88;;;13.35;;
48516;SDS011;34310;51.904;4.256;2024-03-07T10:45:30;16.75;;;13.80;;
48516;SDS011;34310;51.904;4.256;2024-03-07T10:47:59;15.18;;;13.05;;
48516;SDS011;34310;51.904;4.256;2024-03-07T10:50:42;14.80;;;12.93;;
48516;SDS011;34310;51.904;4.256;2024-03-07T10:59:18;14.35;;;12.85;;
48516;SDS011;34310;51.904;4.256;2024-03-07T11:01:53;13.65;;;12.25;;
48516;SDS011;34310;51.904;4.256;2024-03-07T11:04:32;13.25;;;11.85;;
48516;SDS011;34310;51.904;4.256;2024-03-07T11:06:59;12.90;;;11.60;;
48516;SDS011;34310;51.904;4.256;2024-03-07T11:09:26;13.85;;;12.18;;
48516;SDS011;34310;51.904;4.256;2024-03-07T11:11:53;13.20;;;11.82;;
48516;SDS011;34310;51.904;4.256;2024-03-07T11:14:20;12.63;;;11.32;;
48516;SDS011;34310;51.904;4.256;2024-03-07T11:16:47;12.52;;;11.25;;
48516;SDS011;34310;51.904;4.256;2024-03-07T11:19:18;12.90;;;11.60;;
48516;SDS011;34310;51.904;4.256;2024-03-07T11:21:51;12.05;;;10.82;;
48516;SDS011;34310;51.904;4.256;2024-03-07T11:24:28;12.10;;;10.85;;
48516;SDS011;34310;51.904;4.256;2024-03-07T11:26:56;11.45;;;10.35;;
48516;SDS011;34310;51.904;4.256;2024-03-07T11:32:06;12.05;;;10.60;;
48516;SDS011;34310;51.904;4.256;2024-03-07T11:34:33;11.27;;;10.15;;
48516;SDS011;34310;51.904;4.256;2024-03-07T11:37:04;11.18;;;10.02;;
48516;SDS011;34310;51.904;4.256;2024-03-07T11:39:46;11.77;;;10.52;;
48516;SDS011;34310;51.904;4.256;2024-03-07T11:42:22;11.90;;;10.25;;
48516;SDS011;34310;51.904;4.256;2024-03-07T11:44:53;11.60;;;10.30;;
48516;SDS011;34310;51.904;4.256;2024-03-07T11:47:20;11.32;;;10.13;;
48516;SDS011;34310;51.904;4.256;2024-03-07T11:49:47;11.73;;;10.50;;
48516;SDS011;34310;51.904;4.256;2024-03-07T11:52:13;12.25;;;10.95;;
48516;SDS011;34310;51.904;4.256;2024-03-07T11:54:43;11.88;;;10.68;;
48516;SDS011;34310;51.904;4.256;2024-03-07T11:57:10;13.45;;;11.48;;
48516;SDS011;34310;51.904;4.256;2024-03-07T11:59:36;11.60;;;10.40;;
48516;SDS011;34310;51.904;4.256;2024-03-07T12:02:03;12.50;;;11.20;;
48516;SDS011;34310;51.904;4.256;2024-03-07T12:04:30;11.93;;;10.73;;
48516;SDS011;34310;51.904;4.256;2024-03-07T12:06:56;12.48;;;11.18;;
48516;SDS011;34310;51.904;4.256;2024-03-07T12:09:23;12.68;;;11.38;;
48516;SDS011;34310;51.904;4.256;2024-03-07T12:11:50;12.85;;;11.40;;
48516;SDS011;34310;51.904;4.256;2024-03-07T12:14:16;13.25;;;11.85;;
48516;SDS011;34310;51.904;4.256;2024-03-07T12:16:43;13.23;;;11.82;;
48516;SDS011;34310;51.904;4.256;2024-03-07T12:19:10;12.60;;;10.80;;
48516;SDS011;34310;51.904;4.256;2024-03-07T12:21:36;12.25;;;11.00;;
48516;SDS011;34310;51.904;4.256;2024-03-07T12:24:12;12.02;;;10.85;;
48516;SDS011;34310;51.904;4.256;2024-03-07T12:26:40;12.20;;;10.90;;
48516;SDS011;34310;51.904;4.256;2024-03-07T12:29:07;12.40;;;10.90;;
48516;SDS011;34310;51.904;4.256;2024-03-07T12:31:35;12.80;;;11.20;;
48516;SDS011;34310;51.904;4.256;2024-03-07T12:34:02;11.80;;;10.60;;
48516;SDS011;34310;51.904;4.256;2024-03-07T12:36:28;11.38;;;10.18;;
48516;SDS011;34310;51.904;4.256;2024-03-07T12:38:55;11.77;;;10.57;;
48516;SDS011;34310;51.904;4.256;2024-03-07T12:41:22;11.93;;;10.63;;
48516;SDS011;34310;51.904;4.256;2024-03-07T12:43:48;10.70;;;9.60;;
48516;SDS011;34310;51.904;4.256;2024-03-07T12:46:16;11.35;;;9.85;;
48516;SDS011;34310;51.904;4.256;2024-03-07T12:48:44;11.02;;;9.77;;
48516;SDS011;34310;51.904;4.256;2024-03-07T12:51:11;11.35;;;10.15;;
48516;SDS011;34310;51.904;4.256;2024-03-07T12:53:37;11.23;;;9.98;;
48516;SDS011;34310;51.904;4.256;2024-03-07T12:56:04;10.05;;;9.05;;
48516;SDS011;34310;51.904;4.256;2024-03-07T12:58:31;11.85;;;10.60;;
48516;SDS011;34310;51.904;4.256;2024-03-07T13:00:57;11.75;;;10.55;;
48516;SDS011;34310;51.904;4.256;2024-03-07T13:03:24;11.52;;;10.23;;
48516;SDS011;34310;51.904;4.256;2024-03-07T13:05:51;11.50;;;10.30;;
48516;SDS011;34310;51.904;4.256;2024-03-07T13:08:18;10.80;;;9.70;;
48516;SDS011;34310;51.904;4.256;2024-03-07T13:10:45;12.65;;;9.93;;
48516;SDS011;34310;51.904;4.256;2024-03-07T13:13:15;11.23;;;9.90;;
48516;SDS011;34310;51.904;4.256;2024-03-07T13:15:42;11.70;;;10.50;;
48516;SDS011;34310;51.904;4.256;2024-03-07T13:18:08;11.65;;;10.13;;
48516;SDS011;34310;51.904;4.256;2024-03-07T13:20:35;10.43;;;9.32;;
48516;SDS011;34310;51.904;4.256;2024-03-07T13:23:02;11.05;;;9.95;;
48516;SDS011;34310;51.904;4.256;2024-03-07T13:25:29;11.05;;;9.95;;
48516;SDS011;34310;51.904;4.256;2024-03-07T13:28:00;13.45;;;10.82;;
48516;SDS011;34310;51.904;4.256;2024-03-07T13:30:27;11.88;;;10.68;;
48516;SDS011;34310;51.904;4.256;2024-03-07T13:32:55;12.55;;;10.45;;
48516;SDS011;34310;51.904;4.256;2024-03-07T13:35:23;12.10;;;10.77;;
48516;SDS011;34310;51.904;4.256;2024-03-07T13:37:52;11.45;;;10.25;;
48516;SDS011;34310;51.904;4.256;2024-03-07T13:40:19;11.57;;;10.38;;
48516;SDS011;34310;51.904;4.256;2024-03-07T13:42:46;11.60;;;10.45;;
48516;SDS011;34310;51.904;4.256;2024-03-07T13:45:13;12.20;;;10.68;;
48516;SDS011;34310;51.904;4.256;2024-03-07T13:47:39;12.82;;;11.52;;
48516;SDS011;34310;51.904;4.256;2024-03-07T13:50:06;12.60;;;11.13;;
48516;SDS011;34310;51.904;4.256;2024-03-07T13:52:40;12.18;;;10.90;;
48516;SDS011;34310;51.904;4.256;2024-03-07T13:55:07;13.43;;;12.00;;
48516;SDS011;34310;51.904;4.256;2024-03-07T13:57:42;12.68;;;11.38;;
48516;SDS011;34310;51.904;4.256;2024-03-07T14:00:31;12.95;;;11.13;;
48516;SDS011;34310;51.904;4.256;2024-03-07T14:05:52;12.65;;;11.35;;
48516;SDS011;34310;51.904;4.256;2024-03-07T14:14:13;12.85;;;11.45;;
48516;SDS011;34310;51.904;4.256;2024-03-07T14:23:19;14.40;;;12.20;;
48516;SDS011;34310;51.904;4.256;2024-03-07T14:26:13;13.57;;;12.20;;
48516;SDS011;34310;51.904;4.256;2024-03-07T14:31:47;13.20;;;11.80;;
48516;SDS011;34310;51.904;4.256;2024-03-07T14:36:43;13.77;;;12.38;;
48516;SDS011;34310;51.904;4.256;2024-03-07T14:39:11;13.73;;;12.32;;
48516;SDS011;34310;51.904;4.256;2024-03-07T14:44:27;14.25;;;12.75;;
48516;SDS011;34310;51.904;4.256;2024-03-07T14:47:02;13.82;;;12.35;;
48516;SDS011;34310;51.904;4.256;2024-03-07T14:49:30;14.68;;;12.95;;
48516;SDS011;34310;51.904;4.256;2024-03-07T14:51:57;14.27;;;12.77;;
48516;SDS011;34310;51.904;4.256;2024-03-07T14:54:26;14.35;;;12.85;;